sensor_id;sensor_type;location;lat;lon;timestamp;P1;durP1;ratioP1;P2;durP2;ratioP2
68273;SDS011;55104;47.356;19.448;2023-05-15T00:01:47;9.07;;;3.97;;
68273;SDS011;55104;47.356;19.448;2023-05-15T00:04:49;9.25;;;3.67;;
68273;SDS011;55104;47.356;19.448;2023-05-15T00:07:51;12.27;;;3.83;;
68273;SDS011;55104;47.356;19.448;2023-05-15T00:10:53;9.03;;;3.40;;
68273;SDS011;55104;47.356;19.448;2023-05-15T00:14:02;8.50;;;3.65;;
68273;SDS011;55104;47.356;19.448;2023-05-15T00:17:04;9.05;;;3.47;;
68273;SDS011;55104;47.356;19.448;2023-05-15T00:20:06;9.30;;;3.45;;
68273;SDS011;55104;47.356;19.448;2023-05-15T00:23:10;8.23;;;3.58;;
68273;SDS011;55104;47.356;19.448;2023-05-15T00:26:12;10.57;;;4.30;;
68273;SDS011;55104;47.356;19.448;2023-05-15T00:29:16;9.30;;;3.25;;
68273;SDS011;55104;47.356;19.448;2023-05-15T00:32:18;10.43;;;4.35;;
68273;SDS011;55104;47.356;19.448;2023-05-15T00:35:20;9.98;;;2.85;;
68273;SDS011;55104;47.356;19.448;2023-05-15T00:38:24;9.02;;;3.75;;
68273;SDS011;55104;47.356;19.448;2023-05-15T00:41:26;9.60;;;3.23;;
68273;SDS011;55104;47.356;19.448;2023-05-15T00:44:32;9.25;;;3.50;;
68273;SDS011;55104;47.356;19.448;2023-05-15T00:47:35;7.45;;;3.00;;
68273;SDS011;55104;47.356;19.448;2023-05-15T00:50:38;7.75;;;3.40;;
68273;SDS011;55104;47.356;19.448;2023-05-15T00:53:42;9.93;;;3.97;;
68273;SDS011;55104;47.356;19.448;2023-05-15T00:56:45;7.73;;;3.23;;
68273;SDS011;55104;47.356;19.448;2023-05-15T00:59:51;8.70;;;3.83;;
68273;SDS011;55104;47.356;19.448;2023-05-15T01:02:53;8.15;;;3.67;;
68273;SDS011;55104;47.356;19.448;2023-05-15T01:05:55;8.35;;;3.03;;
68273;SDS011;55104;47.356;19.448;2023-05-15T01:08:59;8.07;;;3.78;;
68273;SDS011;55104;47.356;19.448;2023-05-15T01:12:05;10.20;;;4.40;;
68273;SDS011;55104;47.356;19.448;2023-05-15T01:15:08;9.05;;;3.65;;
68273;SDS011;55104;47.356;19.448;2023-05-15T01:18:11;8.82;;;3.47;;
68273;SDS011;55104;47.356;19.448;2023-05-15T01:27:44;9.20;;;3.67;;
68273;SDS011;55104;47.356;19.448;2023-05-15T01:30:51;8.52;;;3.53;;
68273;SDS011;55104;47.356;19.448;2023-05-15T01:33:58;8.40;;;3.08;;
68273;SDS011;55104;47.356;19.448;2023-05-15T01:37:06;7.85;;;3.20;;
68273;SDS011;55104;47.356;19.448;2023-05-15T01:40:10;9.25;;;3.90;;
68273;SDS011;55104;47.356;19.448;2023-05-15T01:43:17;7.80;;;3.57;;
68273;SDS011;55104;47.356;19.448;2023-05-15T01:46:22;8.95;;;3.45;;
68273;SDS011;55104;47.356;19.448;2023-05-15T01:49:29;8.70;;;3.53;;
68273;SDS011;55104;47.356;19.448;2023-05-15T01:52:36;8.65;;;3.60;;
68273;SDS011;55104;47.356;19.448;2023-05-15T01:55:41;8.35;;;3.72;;
68273;SDS011;55104;47.356;19.448;2023-05-15T01:58:44;7.47;;;3.40;;
68273;SDS011;55104;47.356;19.448;2023-05-15T02:01:49;7.78;;;3.33;;
68273;SDS011;55104;47.356;19.448;2023-05-15T02:04:52;7.57;;;3.45;;
68273;SDS011;55104;47.356;19.448;2023-05-15T02:07:54;11.30;;;4.13;;
68273;SDS011;55104;47.356;19.448;2023-05-15T02:10:57;11.98;;;3.92;;
68273;SDS011;55104;47.356;19.448;2023-05-15T02:14:03;8.20;;;3.60;;
68273;SDS011;55104;47.356;19.448;2023-05-15T02:17:05;9.65;;;4.05;;
68273;SDS011;55104;47.356;19.448;2023-05-15T02:20:08;10.60;;;3.70;;
68273;SDS011;55104;47.356;19.448;2023-05-15T02:23:11;8.15;;;3.72;;
68273;SDS011;55104;47.356;19.448;2023-05-15T02:36:27;10.82;;;3.70;;
68273;SDS011;55104;47.356;19.448;2023-05-15T02:39:33;11.43;;;4.13;;
68273;SDS011;55104;47.356;19.448;2023-05-15T02:42:36;9.73;;;3.45;;
68273;SDS011;55104;47.356;19.448;2023-05-15T02:45:39;12.37;;;3.20;;
68273;SDS011;55104;47.356;19.448;2023-05-15T02:48:41;11.77;;;4.30;;
68273;SDS011;55104;47.356;19.448;2023-05-15T02:51:46;9.82;;;4.22;;
68273;SDS011;55104;47.356;19.448;2023-05-15T02:54:48;11.15;;;4.35;;
68273;SDS011;55104;47.356;19.448;2023-05-15T02:57:50;10.38;;;4.75;;
68273;SDS011;55104;47.356;19.448;2023-05-15T03:00:52;10.40;;;4.60;;
68273;SDS011;55104;47.356;19.448;2023-05-15T03:03:54;12.02;;;4.45;;
68273;SDS011;55104;47.356;19.448;2023-05-15T03:06:57;11.63;;;4.40;;
68273;SDS011;55104;47.356;19.448;2023-05-15T03:09:59;12.25;;;4.68;;
68273;SDS011;55104;47.356;19.448;2023-05-15T03:13:01;11.27;;;4.82;;
68273;SDS011;55104;47.356;19.448;2023-05-15T03:16:03;8.43;;;3.83;;
68273;SDS011;55104;47.356;19.448;2023-05-15T03:19:05;8.73;;;4.28;;
68273;SDS011;55104;47.356;19.448;2023-05-15T03:22:08;10.35;;;4.82;;
68273;SDS011;55104;47.356;19.448;2023-05-15T03:25:10;10.68;;;4.72;;
68273;SDS011;55104;47.356;19.448;2023-05-15T03:28:12;11.13;;;4.90;;
68273;SDS011;55104;47.356;19.448;2023-05-15T03:31:14;10.03;;;4.37;;
68273;SDS011;55104;47.356;19.448;2023-05-15T03:34:16;12.50;;;4.63;;
68273;SDS011;55104;47.356;19.448;2023-05-15T03:37:18;9.48;;;4.45;;
68273;SDS011;55104;47.356;19.448;2023-05-15T03:40:22;10.00;;;4.97;;
68273;SDS011;55104;47.356;19.448;2023-05-15T03:43:24;14.98;;;5.20;;
68273;SDS011;55104;47.356;19.448;2023-05-15T03:46:26;11.40;;;5.10;;
68273;SDS011;55104;47.356;19.448;2023-05-15T03:49:28;11.73;;;5.25;;
68273;SDS011;55104;47.356;19.448;2023-05-15T03:52:30;14.10;;;5.45;;
68273;SDS011;55104;47.356;19.448;2023-05-15T03:55:33;10.23;;;4.50;;
68273;SDS011;55104;47.356;19.448;2023-05-15T03:58:36;10.82;;;5.40;;
68273;SDS011;55104;47.356;19.448;2023-05-15T04:01:38;15.57;;;6.70;;
68273;SDS011;55104;47.356;19.448;2023-05-15T04:05:00;12.95;;;6.20;;
68273;SDS011;55104;47.356;19.448;2023-05-15T04:08:03;12.75;;;5.47;;
68273;SDS011;55104;47.356;19.448;2023-05-15T04:11:05;15.23;;;6.05;;
68273;SDS011;55104;47.356;19.448;2023-05-15T04:14:07;13.18;;;6.03;;
68273;SDS011;55104;47.356;19.448;2023-05-15T04:17:09;14.13;;;5.73;;
68273;SDS011;55104;47.356;19.448;2023-05-15T04:20:12;12.60;;;6.15;;
68273;SDS011;55104;47.356;19.448;2023-05-15T04:23:15;14.50;;;6.40;;
68273;SDS011;55104;47.356;19.448;2023-05-15T04:26:17;14.05;;;6.13;;
68273;SDS011;55104;47.356;19.448;2023-05-15T04:29:19;16.45;;;6.57;;
68273;SDS011;55104;47.356;19.448;2023-05-15T04:32:21;12.87;;;5.40;;
68273;SDS011;55104;47.356;19.448;2023-05-15T04:35:23;15.00;;;5.82;;
68273;SDS011;55104;47.356;19.448;2023-05-15T04:38:26;18.00;;;6.85;;
68273;SDS011;55104;47.356;19.448;2023-05-15T04:41:28;13.25;;;5.88;;
68273;SDS011;55104;47.356;19.448;2023-05-15T04:44:30;17.42;;;6.18;;
68273;SDS011;55104;47.356;19.448;2023-05-15T04:47:34;13.23;;;5.83;;
68273;SDS011;55104;47.356;19.448;2023-05-15T04:50:36;14.05;;;6.30;;
68273;SDS011;55104;47.356;19.448;2023-05-15T04:53:38;12.05;;;5.40;;
68273;SDS011;55104;47.356;19.448;2023-05-15T04:56:40;14.75;;;5.78;;
68273;SDS011;55104;47.356;19.448;2023-05-15T04:59:42;16.50;;;5.82;;
68273;SDS011;55104;47.356;19.448;2023-05-15T05:02:44;12.77;;;5.23;;
68273;SDS011;55104;47.356;19.448;2023-05-15T05:05:46;17.50;;;5.57;;
68273;SDS011;55104;47.356;19.448;2023-05-15T05:08:48;12.27;;;5.45;;
68273;SDS011;55104;47.356;19.448;2023-05-15T05:11:50;13.85;;;6.07;;
68273;SDS011;55104;47.356;19.448;2023-05-15T05:14:52;14.55;;;6.53;;
68273;SDS011;55104;47.356;19.448;2023-05-15T05:17:55;14.83;;;6.07;;
68273;SDS011;55104;47.356;19.448;2023-05-15T05:21:01;16.55;;;6.78;;
68273;SDS011;55104;47.356;19.448;2023-05-15T05:24:04;13.63;;;6.03;;
68273;SDS011;55104;47.356;19.448;2023-05-15T05:27:06;17.25;;;7.15;;
68273;SDS011;55104;47.356;19.448;2023-05-15T05:30:08;13.05;;;6.38;;
68273;SDS011;55104;47.356;19.448;2023-05-15T05:33:11;14.83;;;6.37;;
68273;SDS011;55104;47.356;19.448;2023-05-15T05:36:13;18.27;;;6.82;;
68273;SDS011;55104;47.356;19.448;2023-05-15T05:39:16;16.92;;;6.55;;
68273;SDS011;55104;47.356;19.448;2023-05-15T05:42:20;16.83;;;6.22;;
68273;SDS011;55104;47.356;19.448;2023-05-15T05:45:22;16.55;;;6.85;;
68273;SDS011;55104;47.356;19.448;2023-05-15T05:48:25;16.73;;;6.90;;
68273;SDS011;55104;47.356;19.448;2023-05-15T05:51:27;23.88;;;9.65;;
68273;SDS011;55104;47.356;19.448;2023-05-15T05:54:29;21.13;;;8.43;;
68273;SDS011;55104;47.356;19.448;2023-05-15T05:57:31;21.38;;;8.02;;
68273;SDS011;55104;47.356;19.448;2023-05-15T06:00:33;16.33;;;7.25;;
68273;SDS011;55104;47.356;19.448;2023-05-15T06:03:35;15.77;;;7.20;;
68273;SDS011;55104;47.356;19.448;2023-05-15T06:06:39;19.83;;;7.82;;
68273;SDS011;55104;47.356;19.448;2023-05-15T06:09:41;20.20;;;6.90;;
68273;SDS011;55104;47.356;19.448;2023-05-15T06:12:44;21.25;;;8.55;;
68273;SDS011;55104;47.356;19.448;2023-05-15T06:15:46;17.20;;;7.07;;
68273;SDS011;55104;47.356;19.448;2023-05-15T06:18:48;19.17;;;8.27;;
68273;SDS011;55104;47.356;19.448;2023-05-15T06:21:50;19.25;;;8.35;;
68273;SDS011;55104;47.356;19.448;2023-05-15T06:24:53;24.17;;;8.93;;
68273;SDS011;55104;47.356;19.448;2023-05-15T06:27:55;20.90;;;8.80;;
68273;SDS011;55104;47.356;19.448;2023-05-15T06:30:57;22.40;;;9.52;;
68273;SDS011;55104;47.356;19.448;2023-05-15T06:33:59;21.23;;;8.57;;
68273;SDS011;55104;47.356;19.448;2023-05-15T06:37:01;24.08;;;9.18;;
68273;SDS011;55104;47.356;19.448;2023-05-15T06:40:05;17.67;;;7.82;;
68273;SDS011;55104;47.356;19.448;2023-05-15T06:43:07;20.42;;;8.20;;
68273;SDS011;55104;47.356;19.448;2023-05-15T06:46:10;19.85;;;8.05;;
68273;SDS011;55104;47.356;19.448;2023-05-15T06:49:12;16.53;;;7.90;;
68273;SDS011;55104;47.356;19.448;2023-05-15T06:52:14;17.15;;;7.13;;
68273;SDS011;55104;47.356;19.448;2023-05-15T06:55:17;19.27;;;7.90;;
68273;SDS011;55104;47.356;19.448;2023-05-15T06:58:21;19.73;;;7.55;;
68273;SDS011;55104;47.356;19.448;2023-05-15T07:01:24;22.70;;;7.40;;
68273;SDS011;55104;47.356;19.448;2023-05-15T07:04:27;17.10;;;7.40;;
68273;SDS011;55104;47.356;19.448;2023-05-15T07:07:31;21.08;;;8.30;;
68273;SDS011;55104;47.356;19.448;2023-05-15T07:10:34;19.88;;;8.15;;
68273;SDS011;55104;47.356;19.448;2023-05-15T07:13:37;18.98;;;7.85;;
68273;SDS011;55104;47.356;19.448;2023-05-15T07:16:39;17.08;;;6.93;;
68273;SDS011;55104;47.356;19.448;2023-05-15T07:19:41;15.40;;;6.60;;
68273;SDS011;55104;47.356;19.448;2023-05-15T07:22:44;16.35;;;6.85;;
68273;SDS011;55104;47.356;19.448;2023-05-15T07:25:57;15.52;;;6.80;;
68273;SDS011;55104;47.356;19.448;2023-05-15T07:28:59;13.38;;;6.18;;
68273;SDS011;55104;47.356;19.448;2023-05-15T07:32:01;13.27;;;5.53;;
68273;SDS011;55104;47.356;19.448;2023-05-15T07:35:04;15.83;;;6.43;;
68273;SDS011;55104;47.356;19.448;2023-05-15T07:38:07;14.35;;;5.65;;
68273;SDS011;55104;47.356;19.448;2023-05-15T07:41:10;22.85;;;9.20;;
68273;SDS011;55104;47.356;19.448;2023-05-15T07:44:12;16.48;;;7.72;;
68273;SDS011;55104;47.356;19.448;2023-05-15T07:47:14;15.70;;;6.88;;
68273;SDS011;55104;47.356;19.448;2023-05-15T07:50:16;13.90;;;6.13;;
68273;SDS011;55104;47.356;19.448;2023-05-15T07:53:19;15.30;;;6.50;;
68273;SDS011;55104;47.356;19.448;2023-05-15T07:56:22;14.43;;;6.45;;
68273;SDS011;55104;47.356;19.448;2023-05-15T07:59:24;16.10;;;6.70;;
68273;SDS011;55104;47.356;19.448;2023-05-15T08:02:28;14.45;;;6.55;;
68273;SDS011;55104;47.356;19.448;2023-05-15T08:05:30;12.50;;;5.23;;
68273;SDS011;55104;47.356;19.448;2023-05-15T08:08:32;13.82;;;6.07;;
68273;SDS011;55104;47.356;19.448;2023-05-15T08:11:34;12.68;;;5.47;;
68273;SDS011;55104;47.356;19.448;2023-05-15T08:14:36;12.10;;;6.15;;
68273;SDS011;55104;47.356;19.448;2023-05-15T08:17:38;14.25;;;5.90;;
68273;SDS011;55104;47.356;19.448;2023-05-15T08:20:42;12.80;;;5.50;;
68273;SDS011;55104;47.356;19.448;2023-05-15T08:23:44;13.60;;;5.88;;
68273;SDS011;55104;47.356;19.448;2023-05-15T08:26:46;15.82;;;5.95;;
68273;SDS011;55104;47.356;19.448;2023-05-15T08:29:48;13.07;;;5.60;;
68273;SDS011;55104;47.356;19.448;2023-05-15T08:32:50;13.05;;;5.82;;
68273;SDS011;55104;47.356;19.448;2023-05-15T08:35:52;15.03;;;6.10;;
68273;SDS011;55104;47.356;19.448;2023-05-15T08:38:55;14.05;;;5.78;;
68273;SDS011;55104;47.356;19.448;2023-05-15T08:45:11;10.52;;;5.35;;
68273;SDS011;55104;47.356;19.448;2023-05-15T08:48:17;12.35;;;5.35;;
68273;SDS011;55104;47.356;19.448;2023-05-15T08:51:22;12.33;;;5.40;;
68273;SDS011;55104;47.356;19.448;2023-05-15T08:54:24;14.27;;;5.57;;
68273;SDS011;55104;47.356;19.448;2023-05-15T08:57:27;12.75;;;5.07;;
68273;SDS011;55104;47.356;19.448;2023-05-15T09:00:30;13.40;;;5.80;;
68273;SDS011;55104;47.356;19.448;2023-05-15T09:03:32;12.82;;;5.97;;
68273;SDS011;55104;47.356;19.448;2023-05-15T09:06:34;11.70;;;5.07;;
68273;SDS011;55104;47.356;19.448;2023-05-15T09:09:37;11.35;;;4.95;;
68273;SDS011;55104;47.356;19.448;2023-05-15T09:12:40;11.07;;;5.20;;
68273;SDS011;55104;47.356;19.448;2023-05-15T09:15:45;11.30;;;5.03;;
68273;SDS011;55104;47.356;19.448;2023-05-15T09:18:50;12.60;;;5.60;;
68273;SDS011;55104;47.356;19.448;2023-05-15T09:21:53;12.40;;;5.50;;
68273;SDS011;55104;47.356;19.448;2023-05-15T09:24:55;11.00;;;5.05;;
68273;SDS011;55104;47.356;19.448;2023-05-15T09:27:59;12.40;;;5.20;;
68273;SDS011;55104;47.356;19.448;2023-05-15T09:31:02;11.10;;;5.10;;
68273;SDS011;55104;47.356;19.448;2023-05-15T09:34:05;11.43;;;4.95;;
68273;SDS011;55104;47.356;19.448;2023-05-15T09:37:12;10.27;;;4.90;;
68273;SDS011;55104;47.356;19.448;2023-05-15T09:40:29;12.18;;;5.60;;
68273;SDS011;55104;47.356;19.448;2023-05-15T09:43:33;11.18;;;5.05;;
68273;SDS011;55104;47.356;19.448;2023-05-15T09:46:37;11.80;;;4.30;;
68273;SDS011;55104;47.356;19.448;2023-05-15T09:49:42;8.85;;;3.70;;
68273;SDS011;55104;47.356;19.448;2023-05-15T09:52:45;9.47;;;3.83;;
68273;SDS011;55104;47.356;19.448;2023-05-15T09:55:47;8.30;;;3.30;;
68273;SDS011;55104;47.356;19.448;2023-05-15T09:58:51;8.60;;;3.35;;
68273;SDS011;55104;47.356;19.448;2023-05-15T10:01:56;9.02;;;3.58;;
68273;SDS011;55104;47.356;19.448;2023-05-15T10:04:59;8.40;;;3.35;;
68273;SDS011;55104;47.356;19.448;2023-05-15T10:08:02;8.10;;;3.27;;
68273;SDS011;55104;47.356;19.448;2023-05-15T10:11:04;8.13;;;3.33;;
68273;SDS011;55104;47.356;19.448;2023-05-15T10:14:08;8.00;;;3.30;;
68273;SDS011;55104;47.356;19.448;2023-05-15T10:17:11;8.50;;;3.45;;
68273;SDS011;55104;47.356;19.448;2023-05-15T10:20:19;8.57;;;3.20;;
68273;SDS011;55104;47.356;19.448;2023-05-15T10:23:22;7.57;;;2.70;;
68273;SDS011;55104;47.356;19.448;2023-05-15T10:26:30;8.13;;;3.25;;
68273;SDS011;55104;47.356;19.448;2023-05-15T10:29:37;9.30;;;3.42;;
68273;SDS011;55104;47.356;19.448;2023-05-15T10:32:40;7.90;;;3.05;;
68273;SDS011;55104;47.356;19.448;2023-05-15T10:35:43;6.88;;;2.72;;
68273;SDS011;55104;47.356;19.448;2023-05-15T10:38:46;7.40;;;2.97;;
68273;SDS011;55104;47.356;19.448;2023-05-15T10:41:50;6.75;;;2.80;;
68273;SDS011;55104;47.356;19.448;2023-05-15T10:44:52;7.50;;;3.35;;
68273;SDS011;55104;47.356;19.448;2023-05-15T10:48:00;8.32;;;3.55;;
68273;SDS011;55104;47.356;19.448;2023-05-15T10:51:11;10.27;;;3.60;;
68273;SDS011;55104;47.356;19.448;2023-05-15T10:54:15;8.67;;;3.93;;
68273;SDS011;55104;47.356;19.448;2023-05-15T10:57:19;7.97;;;3.33;;
68273;SDS011;55104;47.356;19.448;2023-05-15T11:03:36;8.75;;;3.80;;
68273;SDS011;55104;47.356;19.448;2023-05-15T11:06:50;8.32;;;3.42;;
68273;SDS011;55104;47.356;19.448;2023-05-15T11:17:10;8.55;;;3.67;;
68273;SDS011;55104;47.356;19.448;2023-05-15T11:20:13;9.43;;;3.65;;
68273;SDS011;55104;47.356;19.448;2023-05-15T11:23:15;7.13;;;3.10;;
68273;SDS011;55104;47.356;19.448;2023-05-15T11:26:31;10.50;;;4.53;;
68273;SDS011;55104;47.356;19.448;2023-05-15T11:29:33;8.63;;;4.65;;
68273;SDS011;55104;47.356;19.448;2023-05-15T11:32:39;17.17;;;5.68;;
68273;SDS011;55104;47.356;19.448;2023-05-15T11:35:43;13.32;;;4.32;;
68273;SDS011;55104;47.356;19.448;2023-05-15T11:38:48;7.80;;;2.75;;
68273;SDS011;55104;47.356;19.448;2023-05-15T11:41:51;6.27;;;2.30;;
68273;SDS011;55104;47.356;19.448;2023-05-15T11:44:55;6.57;;;3.00;;
68273;SDS011;55104;47.356;19.448;2023-05-15T11:48:01;7.60;;;3.13;;
68273;SDS011;55104;47.356;19.448;2023-05-15T11:51:04;8.70;;;3.13;;
68273;SDS011;55104;47.356;19.448;2023-05-15T11:54:13;6.25;;;2.70;;
68273;SDS011;55104;47.356;19.448;2023-05-15T11:57:15;6.63;;;2.53;;
68273;SDS011;55104;47.356;19.448;2023-05-15T12:00:20;5.88;;;2.75;;
68273;SDS011;55104;47.356;19.448;2023-05-15T12:03:23;5.40;;;2.28;;
68273;SDS011;55104;47.356;19.448;2023-05-15T12:06:26;5.50;;;2.05;;
68273;SDS011;55104;47.356;19.448;2023-05-15T12:09:28;6.28;;;2.17;;
68273;SDS011;55104;47.356;19.448;2023-05-15T12:12:30;5.10;;;1.90;;
68273;SDS011;55104;47.356;19.448;2023-05-15T12:15:35;4.63;;;1.75;;
68273;SDS011;55104;47.356;19.448;2023-05-15T12:18:38;5.90;;;2.20;;
68273;SDS011;55104;47.356;19.448;2023-05-15T12:21:44;5.53;;;2.10;;
68273;SDS011;55104;47.356;19.448;2023-05-15T12:24:47;5.32;;;1.83;;
68273;SDS011;55104;47.356;19.448;2023-05-15T12:27:49;5.87;;;2.00;;
68273;SDS011;55104;47.356;19.448;2023-05-15T12:30:51;5.50;;;1.70;;
68273;SDS011;55104;47.356;19.448;2023-05-15T12:33:54;4.70;;;1.70;;
68273;SDS011;55104;47.356;19.448;2023-05-15T12:36:57;4.93;;;1.50;;
68273;SDS011;55104;47.356;19.448;2023-05-15T12:40:04;3.47;;;1.25;;
68273;SDS011;55104;47.356;19.448;2023-05-15T12:43:13;4.97;;;1.60;;
68273;SDS011;55104;47.356;19.448;2023-05-15T12:46:15;4.80;;;1.50;;
68273;SDS011;55104;47.356;19.448;2023-05-15T12:49:23;4.70;;;1.88;;
68273;SDS011;55104;47.356;19.448;2023-05-15T12:52:28;4.05;;;1.52;;
68273;SDS011;55104;47.356;19.448;2023-05-15T12:55:32;5.85;;;1.65;;
68273;SDS011;55104;47.356;19.448;2023-05-15T12:58:35;4.80;;;1.50;;
68273;SDS011;55104;47.356;19.448;2023-05-15T13:01:38;4.20;;;1.40;;
68273;SDS011;55104;47.356;19.448;2023-05-15T13:04:44;5.32;;;1.80;;
68273;SDS011;55104;47.356;19.448;2023-05-15T13:07:47;4.80;;;1.52;;
68273;SDS011;55104;47.356;19.448;2023-05-15T13:10:56;4.72;;;1.58;;
68273;SDS011;55104;47.356;19.448;2023-05-15T13:13:59;4.53;;;1.63;;
68273;SDS011;55104;47.356;19.448;2023-05-15T13:17:01;4.90;;;1.80;;
68273;SDS011;55104;47.356;19.448;2023-05-15T13:20:04;4.90;;;1.63;;
68273;SDS011;55104;47.356;19.448;2023-05-15T13:23:08;5.05;;;1.58;;
68273;SDS011;55104;47.356;19.448;2023-05-15T13:26:12;4.82;;;1.63;;
68273;SDS011;55104;47.356;19.448;2023-05-15T13:29:14;5.00;;;1.60;;
68273;SDS011;55104;47.356;19.448;2023-05-15T13:32:16;4.00;;;1.30;;
68273;SDS011;55104;47.356;19.448;2023-05-15T13:35:18;4.20;;;1.55;;
68273;SDS011;55104;47.356;19.448;2023-05-15T13:38:20;3.92;;;1.48;;
68273;SDS011;55104;47.356;19.448;2023-05-15T13:41:22;4.47;;;1.60;;
68273;SDS011;55104;47.356;19.448;2023-05-15T13:44:24;4.93;;;1.80;;
68273;SDS011;55104;47.356;19.448;2023-05-15T13:47:26;4.75;;;1.67;;
68273;SDS011;55104;47.356;19.448;2023-05-15T13:50:28;4.80;;;1.70;;
68273;SDS011;55104;47.356;19.448;2023-05-15T13:53:30;4.80;;;1.50;;
68273;SDS011;55104;47.356;19.448;2023-05-15T13:56:32;5.38;;;1.90;;
68273;SDS011;55104;47.356;19.448;2023-05-15T13:59:34;5.00;;;1.60;;
68273;SDS011;55104;47.356;19.448;2023-05-15T14:02:37;4.68;;;1.52;;
68273;SDS011;55104;47.356;19.448;2023-05-15T14:05:40;4.97;;;1.45;;
68273;SDS011;55104;47.356;19.448;2023-05-15T14:08:42;3.97;;;1.38;;
68273;SDS011;55104;47.356;19.448;2023-05-15T14:11:44;4.80;;;1.70;;
68273;SDS011;55104;47.356;19.448;2023-05-15T14:14:46;4.73;;;1.60;;
68273;SDS011;55104;47.356;19.448;2023-05-15T14:17:48;4.57;;;1.60;;
68273;SDS011;55104;47.356;19.448;2023-05-15T14:20:51;6.35;;;2.28;;
68273;SDS011;55104;47.356;19.448;2023-05-15T14:23:53;4.88;;;1.52;;
68273;SDS011;55104;47.356;19.448;2023-05-15T14:26:55;4.32;;;1.50;;
68273;SDS011;55104;47.356;19.448;2023-05-15T14:29:57;5.23;;;1.90;;
68273;SDS011;55104;47.356;19.448;2023-05-15T14:32:59;4.28;;;1.38;;
68273;SDS011;55104;47.356;19.448;2023-05-15T14:36:03;4.15;;;1.35;;
68273;SDS011;55104;47.356;19.448;2023-05-15T14:39:05;4.30;;;1.08;;
68273;SDS011;55104;47.356;19.448;2023-05-15T14:42:09;3.55;;;1.10;;
68273;SDS011;55104;47.356;19.448;2023-05-15T14:45:11;7.57;;;2.33;;
68273;SDS011;55104;47.356;19.448;2023-05-15T14:48:14;5.50;;;1.75;;
68273;SDS011;55104;47.356;19.448;2023-05-15T14:51:16;5.18;;;1.63;;
68273;SDS011;55104;47.356;19.448;2023-05-15T14:54:20;5.45;;;1.80;;
68273;SDS011;55104;47.356;19.448;2023-05-15T14:57:22;5.75;;;2.20;;
68273;SDS011;55104;47.356;19.448;2023-05-15T15:00:25;6.17;;;1.97;;
68273;SDS011;55104;47.356;19.448;2023-05-15T15:03:29;5.03;;;1.48;;
68273;SDS011;55104;47.356;19.448;2023-05-15T15:06:34;3.75;;;1.20;;
68273;SDS011;55104;47.356;19.448;2023-05-15T15:09:36;5.60;;;1.80;;
68273;SDS011;55104;47.356;19.448;2023-05-15T15:12:38;4.68;;;1.35;;
68273;SDS011;55104;47.356;19.448;2023-05-15T15:15:41;4.77;;;1.33;;
68273;SDS011;55104;47.356;19.448;2023-05-15T15:18:43;6.38;;;1.90;;
68273;SDS011;55104;47.356;19.448;2023-05-15T15:21:45;17.85;;;6.30;;
68273;SDS011;55104;47.356;19.448;2023-05-15T15:24:47;15.07;;;5.35;;
68273;SDS011;55104;47.356;19.448;2023-05-15T15:27:49;13.73;;;4.95;;
68273;SDS011;55104;47.356;19.448;2023-05-15T15:30:51;7.70;;;2.53;;
68273;SDS011;55104;47.356;19.448;2023-05-15T15:33:53;6.53;;;2.53;;
68273;SDS011;55104;47.356;19.448;2023-05-15T15:36:55;6.03;;;2.22;;
68273;SDS011;55104;47.356;19.448;2023-05-15T15:39:58;7.97;;;2.45;;
68273;SDS011;55104;47.356;19.448;2023-05-15T15:43:01;5.10;;;1.50;;
68273;SDS011;55104;47.356;19.448;2023-05-15T15:46:03;5.27;;;1.83;;
68273;SDS011;55104;47.356;19.448;2023-05-15T15:49:05;6.95;;;2.17;;
68273;SDS011;55104;47.356;19.448;2023-05-15T15:52:08;9.40;;;2.88;;
68273;SDS011;55104;47.356;19.448;2023-05-15T15:55:10;7.88;;;3.20;;
68273;SDS011;55104;47.356;19.448;2023-05-15T15:58:12;8.05;;;3.28;;
68273;SDS011;55104;47.356;19.448;2023-05-15T16:01:15;6.53;;;2.40;;
68273;SDS011;55104;47.356;19.448;2023-05-15T16:04:17;6.82;;;2.55;;
68273;SDS011;55104;47.356;19.448;2023-05-15T16:07:19;6.15;;;2.50;;
68273;SDS011;55104;47.356;19.448;2023-05-15T16:10:21;6.57;;;2.88;;
68273;SDS011;55104;47.356;19.448;2023-05-15T16:13:23;7.88;;;2.40;;
68273;SDS011;55104;47.356;19.448;2023-05-15T16:16:25;7.07;;;2.90;;
68273;SDS011;55104;47.356;19.448;2023-05-15T16:19:27;8.88;;;3.42;;
68273;SDS011;55104;47.356;19.448;2023-05-15T16:22:29;7.05;;;3.15;;
68273;SDS011;55104;47.356;19.448;2023-05-15T16:25:31;7.97;;;3.17;;
68273;SDS011;55104;47.356;19.448;2023-05-15T16:28:34;15.95;;;4.13;;
68273;SDS011;55104;47.356;19.448;2023-05-15T16:31:36;9.93;;;4.40;;
68273;SDS011;55104;47.356;19.448;2023-05-15T16:34:39;9.57;;;4.40;;
68273;SDS011;55104;47.356;19.448;2023-05-15T16:37:41;9.70;;;4.25;;
68273;SDS011;55104;47.356;19.448;2023-05-15T16:40:43;10.40;;;5.25;;
68273;SDS011;55104;47.356;19.448;2023-05-15T16:43:45;10.90;;;5.28;;
68273;SDS011;55104;47.356;19.448;2023-05-15T16:46:47;10.33;;;4.73;;
68273;SDS011;55104;47.356;19.448;2023-05-15T16:49:49;9.43;;;5.45;;
68273;SDS011;55104;47.356;19.448;2023-05-15T16:52:51;11.70;;;5.90;;
68273;SDS011;55104;47.356;19.448;2023-05-15T16:55:53;12.90;;;6.45;;
68273;SDS011;55104;47.356;19.448;2023-05-15T16:58:55;12.05;;;5.72;;
68273;SDS011;55104;47.356;19.448;2023-05-15T17:01:57;13.20;;;7.17;;
68273;SDS011;55104;47.356;19.448;2023-05-15T17:04:59;14.90;;;9.07;;
68273;SDS011;55104;47.356;19.448;2023-05-15T17:08:02;16.98;;;10.40;;
68273;SDS011;55104;47.356;19.448;2023-05-15T17:11:04;19.17;;;10.13;;
68273;SDS011;55104;47.356;19.448;2023-05-15T17:14:06;13.65;;;7.53;;
68273;SDS011;55104;47.356;19.448;2023-05-15T17:17:08;13.80;;;6.83;;
68273;SDS011;55104;47.356;19.448;2023-05-15T17:20:10;11.65;;;5.85;;
68273;SDS011;55104;47.356;19.448;2023-05-15T17:23:12;14.13;;;6.90;;
68273;SDS011;55104;47.356;19.448;2023-05-15T17:26:15;11.75;;;6.57;;
68273;SDS011;55104;47.356;19.448;2023-05-15T17:29:16;13.68;;;7.47;;
68273;SDS011;55104;47.356;19.448;2023-05-15T17:32:19;10.73;;;5.07;;
68273;SDS011;55104;47.356;19.448;2023-05-15T17:35:21;10.98;;;5.65;;
68273;SDS011;55104;47.356;19.448;2023-05-15T17:38:23;12.35;;;6.85;;
68273;SDS011;55104;47.356;19.448;2023-05-15T17:41:25;12.77;;;6.72;;
68273;SDS011;55104;47.356;19.448;2023-05-15T17:44:27;12.07;;;6.80;;
68273;SDS011;55104;47.356;19.448;2023-05-15T17:47:31;14.63;;;7.27;;
68273;SDS011;55104;47.356;19.448;2023-05-15T17:50:33;20.50;;;9.65;;
68273;SDS011;55104;47.356;19.448;2023-05-15T17:53:38;9.57;;;5.88;;
68273;SDS011;55104;47.356;19.448;2023-05-15T17:56:40;11.40;;;4.70;;
68273;SDS011;55104;47.356;19.448;2023-05-15T17:59:43;8.85;;;4.38;;
68273;SDS011;55104;47.356;19.448;2023-05-15T18:02:45;9.33;;;3.87;;
68273;SDS011;55104;47.356;19.448;2023-05-15T18:05:47;9.70;;;3.65;;
68273;SDS011;55104;47.356;19.448;2023-05-15T18:08:50;9.40;;;4.20;;
68273;SDS011;55104;47.356;19.448;2023-05-15T18:11:52;12.10;;;4.97;;
68273;SDS011;55104;47.356;19.448;2023-05-15T18:14:55;13.48;;;6.00;;
68273;SDS011;55104;47.356;19.448;2023-05-15T18:17:57;12.77;;;5.80;;
68273;SDS011;55104;47.356;19.448;2023-05-15T18:21:00;13.80;;;5.82;;
68273;SDS011;55104;47.356;19.448;2023-05-15T18:24:03;12.77;;;5.32;;
68273;SDS011;55104;47.356;19.448;2023-05-15T18:27:05;15.82;;;7.05;;
68273;SDS011;55104;47.356;19.448;2023-05-15T18:30:09;18.42;;;7.68;;